Time;durP1;ratioP1;P1;durP2;ratioP2;P2;SDS_P1;SDS_P2;PMS_P1;PMS_P2;Temp;Humidity;BMP_temperature;BMP_pressure;BME280_temperature;BME280_humidity;BME280_pressure;Samples;Min_cycle;Max_cycle;Signal;HPM_P1;HPM_P2
2023/07/23 00:02:11;;;;;;;14.35;10.00;;;;;;;12.99;100.00;100863.69;5051944;28;20203;-43
2023/07/23 00:04:36;;;;;;;10.63;9.27;;;;;;;13.04;100.00;100871.53;5050813;28;20230;-42
2023/07/23 00:07:02;;;;;;;9.15;8.20;;;;;;;13.11;100.00;100878.34;5051043;28;20211;-46
2023/07/23 00:09:27;;;;;;;12.60;9.05;;;;;;;13.09;100.00;100868.63;5057031;28;20195;-43
2023/07/23 00:11:53;;;;;;;10.63;9.10;;;;;;;12.99;100.00;100861.00;5058909;28;20183;-42
2023/07/23 00:14:19;;;;;;;11.50;9.07;;;;;;;13.05;100.00;100861.63;5051478;28;20290;-42
2023/07/23 00:16:45;;;;;;;12.85;8.77;;;;;;;13.04;100.00;100850.00;5033556;28;20195;-42
2023/07/23 00:19:15;;;;;;;10.90;8.50;;;;;;;13.08;100.00;100858.81;5052208;28;20206;-42
2023/07/23 00:21:41;;;;;;;8.80;7.90;;;;;;;13.08;100.00;100842.69;5051561;28;20195;-44
2023/07/23 00:24:07;;;;;;;9.75;7.45;;;;;;;13.03;100.00;100850.97;5058123;28;20190;-48
2023/07/23 00:26:33;;;;;;;8.57;7.35;;;;;;;13.06;100.00;100849.94;5054722;28;20226;-43
2023/07/23 00:29:00;;;;;;;11.30;8.52;;;;;;;13.01;100.00;100844.81;5033423;28;20230;-44
2023/07/23 00:31:27;;;;;;;10.63;8.30;;;;;;;12.96;100.00;100844.13;5049390;28;20179;-46
2023/07/23 00:33:52;;;;;;;9.75;7.70;;;;;;;13.06;100.00;100839.19;5052385;28;20202;-41
2023/07/23 00:36:18;;;;;;;10.57;9.23;;;;;;;12.97;100.00;100830.63;5033600;28;20199;-43
2023/07/23 00:38:43;;;;;;;11.05;8.70;;;;;;;12.96;100.00;100839.63;5059258;28;20232;-47
2023/07/23 00:41:09;;;;;;;12.20;8.65;;;;;;;12.94;100.00;100836.16;5064062;28;20695;-43
2023/07/23 00:43:34;;;;;;;12.35;9.18;;;;;;;12.89;100.00;100835.47;5040172;28;20171;-43
2023/07/23 00:46:00;;;;;;;10.32;9.32;;;;;;;12.97;100.00;100838.69;5052636;28;20699;-50
2023/07/23 00:48:26;;;;;;;14.65;9.98;;;;;;;12.98;100.00;100837.72;5050813;28;20230;-49
2023/07/23 00:50:52;;;;;;;14.20;9.45;;;;;;;12.98;100.00;100826.97;5051175;28;20179;-41
2023/07/23 00:53:18;;;;;;;11.45;9.05;;;;;;;12.98;100.00;100818.03;5033245;28;20242;-42
2023/07/23 00:55:44;;;;;;;14.07;10.10;;;;;;;12.93;100.00;100820.94;5049106;28;20210;-43
2023/07/23 00:58:09;;;;;;;13.15;9.65;;;;;;;12.95;100.00;100808.31;5051888;28;20188;-42
2023/07/23 01:00:36;;;;;;;12.63;10.50;;;;;;;12.92;100.00;100810.25;5050984;28;20187;-49
2023/07/23 01:03:02;;;;;;;10.85;9.40;;;;;;;12.99;100.00;100817.09;5052791;28;20184;-41
2023/07/23 01:05:29;;;;;;;13.25;10.52;;;;;;;12.92;100.00;100813.84;5058766;28;20256;-50
2023/07/23 01:07:56;;;;;;;14.38;10.20;;;;;;;12.95;100.00;100811.00;5060286;28;20596;-42
2023/07/23 01:10:22;;;;;;;13.82;10.00;;;;;;;12.89;100.00;100822.03;5040040;28;20561;-43
2023/07/23 01:12:49;;;;;;;13.00;9.63;;;;;;;12.95;100.00;100808.31;5059133;28;20664;-45
2023/07/23 01:15:14;;;;;;;15.10;10.75;;;;;;;12.94;100.00;100809.25;5050578;28;20203;-47
2023/07/23 01:17:41;;;;;;;13.90;10.07;;;;;;;12.92;100.00;100804.88;5050264;28;20302;-43
2023/07/23 01:20:07;;;;;;;11.05;8.70;;;;;;;13.00;100.00;100802.69;5043216;28;20198;-47
2023/07/23 01:22:34;;;;;;;11.80;9.20;;;;;;;12.92;100.00;100802.19;5058254;28;20180;-45
2023/07/23 01:25:00;;;;;;;11.90;9.32;;;;;;;12.94;100.00;100802.97;5034167;28;20552;-43
2023/07/23 01:27:26;;;;;;;11.45;9.77;;;;;;;12.93;100.00;100791.38;5057151;28;20175;-42
2023/07/23 01:29:51;;;;;;;10.52;9.18;;;;;;;12.96;100.00;100798.41;5050379;28;20274;-46
2023/07/23 01:32:17;;;;;;;10.75;9.68;;;;;;;12.85;100.00;100781.94;5062368;28;20175;-43
2023/07/23 01:34:44;;;;;;;13.25;10.00;;;;;;;12.87;100.00;100788.09;5033647;28;20244;-46
2023/07/23 01:37:10;;;;;;;12.65;10.07;;;;;;;12.86;100.00;100783.69;5032059;28;20234;-42
2023/07/23 01:39:36;;;;;;;11.30;9.20;;;;;;;12.91;100.00;100781.63;5050281;28;20186;-49
2023/07/23 01:42:02;;;;;;;11.55;9.65;;;;;;;12.87;100.00;100780.03;5037105;28;20545;-44
2023/07/23 01:44:28;;;;;;;14.50;10.05;;;;;;;12.84;100.00;100777.50;5056897;28;20175;-51
2023/07/23 01:46:54;;;;;;;13.32;10.15;;;;;;;12.89;100.00;100780.84;5032467;28;20206;-44
2023/07/23 01:49:19;;;;;;;12.15;10.20;;;;;;;12.84;100.00;100767.63;5060916;28;20671;-44
2023/07/23 01:51:45;;;;;;;12.00;9.48;;;;;;;12.78;100.00;100760.72;5036367;28;20677;-45
2023/07/23 01:54:11;;;;;;;12.82;10.45;;;;;;;12.82;100.00;100760.59;5049597;28;20211;-46
2023/07/23 01:56:37;;;;;;;12.05;10.80;;;;;;;12.81;100.00;100751.63;5049921;28;20252;-46
2023/07/23 01:59:04;;;;;;;12.00;10.63;;;;;;;12.82;100.00;100748.00;5033307;28;20631;-44
2023/07/23 02:01:30;;;;;;;13.00;11.55;;;;;;;12.78;100.00;100739.19;5038480;28;20198;-45
2023/07/23 02:03:55;;;;;;;14.45;12.57;;;;;;;12.81;100.00;100745.38;5058298;28;20637;-46
2023/07/23 02:06:21;;;;;;;14.48;12.98;;;;;;;12.84;100.00;100748.78;5057728;28;20278;-42
2023/07/23 02:08:46;;;;;;;14.45;12.90;;;;;;;12.86;100.00;100735.28;5055236;28;20224;-43
2023/07/23 02:11:12;;;;;;;14.60;12.68;;;;;;;12.81;100.00;100730.09;5053174;28;20660;-46
2023/07/23 02:13:38;;;;;;;16.60;13.68;;;;;;;12.81;100.00;100740.00;5036720;28;20245;-43
2023/07/23 02:16:04;;;;;;;17.02;14.82;;;;;;;12.80;100.00;100736.44;5031162;28;20693;-44
2023/07/23 02:18:29;;;;;;;15.90;14.27;;;;;;;12.78;100.00;100731.13;5031759;28;20229;-42
2023/07/23 02:20:55;;;;;;;17.52;14.30;;;;;;;12.83;100.00;100736.28;5039842;28;20587;-43
2023/07/23 02:23:21;;;;;;;19.15;14.52;;;;;;;12.78;100.00;100731.13;5049463;28;20187;-45
2023/07/23 02:25:50;;;;;;;18.05;15.38;;;;;;;12.78;100.00;100728.44;5031312;28;20618;-43
2023/07/23 02:28:16;;;;;;;17.92;15.55;;;;;;;12.81;100.00;100719.34;5062661;28;20274;-46
2023/07/23 02:30:41;;;;;;;18.75;15.52;;;;;;;12.79;100.00;100718.59;5059275;28;20704;-48
2023/07/23 02:33:07;;;;;;;17.17;15.45;;;;;;;12.82;100.00;100714.88;5062838;28;20633;-42
2023/07/23 02:35:39;;;;;;;16.77;14.15;;;;;;;12.86;100.00;100719.16;5049081;28;20573;-42
2023/07/23 02:38:05;;;;;;;17.88;15.32;;;;;;;12.87;100.00;100720.88;5049216;28;20306;-44
2023/07/23 02:40:34;;;;;;;18.02;16.13;;;;;;;12.82;100.00;100709.50;5054236;28;20202;-42
2023/07/23 02:43:00;;;;;;;17.27;15.48;;;;;;;12.84;100.00;100723.75;5046557;28;20211;-43
2023/07/23 02:45:26;;;;;;;16.48;14.75;;;;;;;12.86;100.00;100724.53;5052898;28;20199;-46
2023/07/23 02:47:52;;;;;;;19.08;16.20;;;;;;;12.84;100.00;100727.28;5053353;28;20176;-44
2023/07/23 02:50:17;;;;;;;21.27;16.58;;;;;;;12.88;100.00;100730.69;5039577;28;20167;-43
2023/07/23 02:52:43;;;;;;;17.48;15.65;;;;;;;12.86;100.00;100728.09;5031343;28;20183;-45
2023/07/23 02:55:08;;;;;;;20.08;15.98;;;;;;;12.86;100.00;100725.41;5052181;28;20673;-43
2023/07/23 02:57:34;;;;;;;18.67;15.07;;;;;;;12.90;100.00;100726.09;5031623;28;20171;-43
2023/07/23 02:59:59;;;;;;;19.85;15.88;;;;;;;12.87;100.00;100715.50;5049574;28;20207;-44
2023/07/23 03:02:25;;;;;;;19.27;16.13;;;;;;;12.87;100.00;100721.75;5031030;28;20212;-43
2023/07/23 03:04:50;;;;;;;17.52;15.68;;;;;;;12.87;100.00;100711.00;5056638;28;20555;-44
2023/07/23 03:07:16;;;;;;;17.85;15.98;;;;;;;12.93;100.00;100716.06;5058521;28;20192;-45
2023/07/23 03:09:41;;;;;;;18.88;16.55;;;;;;;12.91;100.00;100700.97;5031408;28;20175;-50
2023/07/23 03:12:09;;;;;;;16.80;14.82;;;;;;;12.96;100.00;100698.91;5048969;28;20194;-50
2023/07/23 03:14:35;;;;;;;18.45;16.23;;;;;;;12.97;100.00;100696.16;5030622;28;20264;-44
2023/07/23 03:17:01;;;;;;;18.17;15.65;;;;;;;12.91;100.00;100690.22;5064007;28;20290;-44
2023/07/23 03:19:26;;;;;;;19.25;16.00;;;;;;;12.98;100.00;100697.00;5048929;28;20182;-49
2023/07/23 03:21:51;;;;;;;17.73;15.82;;;;;;;12.94;100.00;100695.41;5048750;28;20228;-42
2023/07/23 03:24:17;;;;;;;19.00;16.42;;;;;;;12.93;100.00;100693.69;5049116;28;20167;-44
2023/07/23 03:26:42;;;;;;;18.25;16.13;;;;;;;12.95;100.00;100684.59;5049327;28;20695;-41
2023/07/23 03:29:08;;;;;;;19.58;16.63;;;;;;;12.95;100.00;100681.91;5048609;28;20172;-45
2023/07/23 03:31:33;;;;;;;19.15;16.30;;;;;;;12.96;100.00;100669.31;5030818;28;20250;-47
2023/07/23 03:33:59;;;;;;;20.05;17.95;;;;;;;12.97;100.00;100674.63;5030598;28;20203;-42
2023/07/23 03:36:25;;;;;;;17.98;16.08;;;;;;;13.06;100.00;100678.66;5033945;28;20216;-44
2023/07/23 03:38:50;;;;;;;21.85;17.30;;;;;;;13.04;100.00;100674.31;5051938;28;20178;-45
2023/07/23 03:41:16;;;;;;;20.20;17.20;;;;;;;13.04;100.00;100675.19;5051860;28;20262;-45
2023/07/23 03:43:41;;;;;;;19.67;17.77;;;;;;;13.08;100.00;100679.47;5051039;28;20270;-44
2023/07/23 03:46:07;;;;;;;20.48;15.95;;;;;;;13.04;100.00;100679.72;5022449;28;20278;-43
2023/07/23 03:48:32;;;;;;;19.65;17.55;;;;;;;13.05;100.00;100667.97;5052090;28;20168;-46
2023/07/23 03:50:58;;;;;;;19.63;17.52;;;;;;;13.07;100.00;100675.03;5033498;28;20179;-43
2023/07/23 03:53:23;;;;;;;18.60;16.73;;;;;;;13.10;100.00;100664.13;5033792;28;20217;-43
2023/07/23 03:55:49;;;;;;;20.13;17.90;;;;;;;13.05;100.00;100667.97;5052117;28;20191;-44
2023/07/23 03:58:15;;;;;;;18.55;16.63;;;;;;;13.08;100.00;100660.63;5050967;28;20519;-48
2023/07/23 04:00:41;;;;;;;20.13;18.13;;;;;;;13.08;100.00;100665.16;5052092;28;20333;-43
2023/07/23 04:03:07;;;;;;;21.30;18.88;;;;;;;13.05;100.00;100663.47;5051660;28;20241;-45
2023/07/23 04:05:32;;;;;;;18.90;17.00;;;;;;;13.10;100.00;100669.50;5051715;28;20278;-43
2023/07/23 04:07:58;;;;;;;20.63;18.48;;;;;;;13.08;100.00;100659.78;5049660;28;20706;-46
2023/07/23 04:10:23;;;;;;;23.33;19.08;;;;;;;13.08;100.00;100655.25;5052200;28;20184;-43
2023/07/23 04:12:49;;;;;;;20.52;18.20;;;;;;;13.15;100.00;100653.13;5051378;28;20202;-44
2023/07/23 04:15:14;;;;;;;20.73;18.63;;;;;;;13.18;100.00;100661.03;5051677;28;20197;-46
2023/07/23 04:17:40;;;;;;;20.75;18.65;;;;;;;13.16;100.00;100658.44;5056862;28;20182;-43
2023/07/23 04:20:06;;;;;;;21.75;19.02;;;;;;;13.15;100.00;100662.06;5055440;28;20203;-43
2023/07/23 04:22:31;;;;;;;22.60;19.02;;;;;;;13.14;100.00;100656.75;5062401;28;20657;-43
2023/07/23 04:24:57;;;;;;;20.38;18.20;;;;;;;13.15;100.00;100656.69;5051911;28;20207;-47
2023/07/23 04:27:22;;;;;;;21.88;18.38;;;;;;;13.16;100.00;100661.13;5059654;28;20246;-43
2023/07/23 04:29:48;;;;;;;21.48;18.90;;;;;;;13.16;100.00;100647.66;5042068;28;20179;-44
2023/07/23 04:32:13;;;;;;;24.90;18.67;;;;;;;13.16;100.00;100650.38;5059839;28;20541;-48
2023/07/23 04:34:39;;;;;;;20.65;18.42;;;;;;;13.17;100.00;100651.22;5051569;28;20214;-42
2023/07/23 04:37:06;;;;;;;22.10;19.70;;;;;;;13.17;100.00;100651.22;5051354;28;20221;-43
2023/07/23 04:39:32;;;;;;;21.50;19.05;;;;;;;13.24;100.00;100649.09;5051716;28;20182;-47
2023/07/23 04:41:58;;;;;;;22.38;19.42;;;;;;;13.17;100.00;100644.03;5049101;28;20547;-43
2023/07/23 04:44:23;;;;;;;23.55;19.98;;;;;;;13.22;100.00;100646.47;5056948;28;20171;-43
2023/07/23 04:46:48;;;;;;;19.80;17.65;;;;;;;13.22;100.00;100641.09;5056898;28;20206;-46
2023/07/23 04:49:14;;;;;;;21.52;18.08;;;;;;;13.25;100.00;100642.72;5051119;28;20172;-42
2023/07/23 04:51:39;;;;;;;22.33;18.70;;;;;;;13.31;100.00;100629.00;5061635;28;20178;-43
2023/07/23 04:54:05;;;;;;;19.77;17.70;;;;;;;13.32;100.00;100630.75;5051432;28;20206;-46
2023/07/23 04:56:31;;;;;;;20.13;17.60;;;;;;;13.30;100.00;100624.59;5059364;28;20202;-42
2023/07/23 04:58:56;;;;;;;22.23;18.13;;;;;;;13.27;100.00;100622.00;5059971;28;20167;-44
2023/07/23 05:01:22;;;;;;;22.90;17.92;;;;;;;13.32;100.00;100614.63;5051088;28;20182;-45
2023/07/23 05:03:47;;;;;;;22.77;18.23;;;;;;;13.35;100.00;100628.75;5051224;28;20184;-43
2023/07/23 05:06:13;;;;;;;23.85;17.70;;;;;;;13.28;100.00;100619.28;5032943;28;20187;-45
2023/07/23 05:08:38;;;;;;;20.00;17.98;;;;;;;13.34;100.00;100618.97;5048873;28;20649;-45
2023/07/23 05:11:05;;;;;;;21.98;18.10;;;;;;;13.36;100.00;100624.28;5038988;28;20176;-44
2023/07/23 05:13:31;;;;;;;21.63;17.65;;;;;;;13.35;100.00;100620.69;5074510;23;20238;-43
2023/07/23 05:15:58;;;;;;;21.17;17.85;;;;;;;13.40;100.00;100612.34;5049970;28;20685;-46
2023/07/23 05:18:24;;;;;;;19.77;17.75;;;;;;;13.43;100.00;100616.75;5048694;28;20236;-45
2023/07/23 05:20:49;;;;;;;22.48;18.25;;;;;;;13.45;100.00;100621.06;5047512;28;20645;-45
2023/07/23 05:23:15;;;;;;;25.05;17.55;;;;;;;13.46;100.00;100612.03;5045897;28;20202;-43
2023/07/23 05:25:42;;;;;;;21.38;17.55;;;;;;;13.44;100.00;100605.88;5049456;28;20607;-44
2023/07/23 05:28:08;;;;;;;21.20;17.25;;;;;;;13.47;100.00;100608.41;5031193;28;20213;-44
2023/07/23 05:30:33;;;;;;;22.88;17.75;;;;;;;13.52;100.00;100613.53;5051195;28;20191;-44
2023/07/23 05:32:59;;;;;;;20.40;18.15;;;;;;;13.49;100.00;100609.19;5047006;28;20272;-46
2023/07/23 05:35:24;;;;;;;20.48;15.88;;;;;;;13.49;100.00;100605.63;5048983;28;20628;-43
2023/07/23 05:37:50;;;;;;;18.42;16.30;;;;;;;13.52;100.00;100603.63;5050114;28;20696;-43
2023/07/23 05:40:15;;;;;;;24.63;17.08;;;;;;;13.59;100.00;100602.34;5048598;28;20168;-47
2023/07/23 05:42:41;;;;;;;16.58;14.70;;;;;;;13.61;100.00;100594.19;5049909;28;20265;-44
2023/07/23 05:45:07;;;;;;;17.42;15.35;;;;;;;13.60;100.00;100598.72;5047436;28;20229;-42
2023/07/23 05:47:32;;;;;;;15.23;13.55;;;;;;;13.60;100.00;100585.25;5048785;28;20199;-43
2023/07/23 05:49:58;;;;;;;15.35;13.70;;;;;;;13.64;100.00;100591.31;5048980;28;20214;-44
2023/07/23 05:52:24;;;;;;;15.27;13.75;;;;;;;13.67;100.00;100585.78;5048856;28;20171;-46
2023/07/23 05:54:49;;;;;;;13.95;12.25;;;;;;;13.63;100.00;100588.72;5044439;28;20279;-45
2023/07/23 05:57:15;;;;;;;13.52;12.02;;;;;;;13.62;100.00;100603.13;5048404;28;20298;-46
2023/07/23 05:59:40;;;;;;;13.15;11.20;;;;;;;13.61;100.00;100594.19;5047418;28;20187;-44
2023/07/23 06:02:06;;;;;;;12.80;10.57;;;;;;;13.65;100.00;100585.00;5050048;28;20179;-45
2023/07/23 06:04:31;;;;;;;11.63;10.40;;;;;;;13.67;100.00;100579.53;5046696;28;20590;-46
2023/07/23 06:06:57;;;;;;;10.48;9.40;;;;;;;13.57;100.00;100581.84;5047606;28;20237;-47
2023/07/23 06:09:22;;;;;;;13.95;9.70;;;;;;;13.59;100.00;100588.88;5042455;28;20187;-47
2023/07/23 06:11:48;;;;;;;10.55;9.45;;;;;;;13.66;100.00;100578.66;5029651;28;20664;-43
2023/07/23 06:14:13;;;;;;;10.68;9.07;;;;;;;13.62;100.00;100582.47;5046811;28;20203;-42
2023/07/23 06:16:39;;;;;;;11.25;8.80;;;;;;;13.73;100.00;100581.88;5048803;28;20200;-46
2023/07/23 06:19:04;;;;;;;9.93;8.93;;;;;;;13.66;100.00;100575.94;5048178;28;20198;-44
2023/07/23 06:21:30;;;;;;;9.88;8.45;;;;;;;13.67;100.00;100579.53;5048694;28;20493;-47
2023/07/23 06:23:55;;;;;;;10.15;8.68;;;;;;;13.70;100.00;100577.53;5027942;28;20698;-46
2023/07/23 06:26:21;;;;;;;8.57;7.78;;;;;;;13.60;100.00;100579.88;5044349;28;20247;-45
2023/07/23 06:28:47;;;;;;;8.77;7.88;;;;;;;13.67;100.00;100587.63;5048517;28;20202;-45
2023/07/23 06:31:13;;;;;;;8.57;7.57;;;;;;;13.74;100.00;100578.25;5046058;28;20195;-45
2023/07/23 06:33:39;;;;;;;7.82;7.03;;;;;;;13.76;100.00;100573.63;5046045;28;20613;-43
2023/07/23 06:36:04;;;;;;;7.32;6.68;;;;;;;13.80;100.00;100588.69;5027725;28;20292;-47
2023/07/23 06:38:30;;;;;;;8.85;7.43;;;;;;;13.76;100.00;100587.09;5049491;28;20190;-41
2023/07/23 06:40:56;;;;;;;8.85;7.25;;;;;;;13.80;100.00;100576.06;5045793;28;20254;-46
2023/07/23 06:43:22;;;;;;;7.72;6.97;;;;;;;13.81;100.00;100575.09;5048402;28;20180;-44
2023/07/23 06:45:50;;;;;;;7.35;6.65;;;;;;;13.84;100.00;100581.28;5048689;28;20676;-43
2023/07/23 06:48:18;;;;;;;8.38;7.57;;;;;;;13.84;100.00;100582.16;5049648;28;20170;-44
2023/07/23 06:50:46;;;;;;;8.05;7.03;;;;;;;13.82;100.00;100576.00;5048111;28;20656;-45
2023/07/23 06:53:13;;;;;;;7.28;6.55;;;;;;;13.83;100.00;100566.94;5028967;28;20172;-45
2023/07/23 06:56:05;;;;;;;7.68;6.90;;;;;;;13.90;100.00;100581.81;5048072;28;20743;-42
2023/07/23 06:58:33;;;;;;;6.70;6.10;;;;;;;13.94;100.00;100567.22;5046154;28;20721;-46
2023/07/23 07:00:59;;;;;;;6.40;5.80;;;;;;;13.88;100.00;100581.00;5047687;28;20259;-46
2023/07/23 07:03:25;;;;;;;7.07;6.18;;;;;;;13.89;100.00;100563.91;5029642;28;20610;-46
2023/07/23 07:05:51;;;;;;;5.72;5.18;;;;;;;13.91;100.00;100566.53;5048769;28;20571;-44
2023/07/23 07:08:16;;;;;;;6.68;5.55;;;;;;;13.95;100.00;100571.66;5048869;28;20602;-46
2023/07/23 07:10:42;;;;;;;6.20;4.95;;;;;;;13.97;100.00;100564.34;5051424;28;20185;-43
2023/07/23 07:13:07;;;;;;;6.05;5.00;;;;;;;13.88;100.00;100564.84;5049718;28;20236;-44
2023/07/23 07:15:33;;;;;;;4.90;4.50;;;;;;;13.90;100.00;100564.78;5050517;28;20226;-45
2023/07/23 07:17:58;;;;;;;4.70;4.30;;;;;;;13.95;100.00;100566.28;5034299;28;20321;-44
2023/07/23 07:20:24;;;;;;;4.78;4.38;;;;;;;13.97;100.00;100571.53;5052948;28;20676;-44
2023/07/23 07:22:49;;;;;;;4.88;4.30;;;;;;;13.92;100.00;100569.13;5050519;28;20179;-46
2023/07/23 07:25:15;;;;;;;6.18;4.13;;;;;;;13.86;100.00;100571.28;5051744;28;20541;-45
2023/07/23 07:27:40;;;;;;;4.00;3.70;;;;;;;13.86;100.00;100566.75;5051668;28;20184;-43
2023/07/23 07:30:06;;;;;;;4.70;4.30;;;;;;;13.88;100.00;100570.25;5051433;28;20197;-45
2023/07/23 07:32:32;;;;;;;4.55;4.15;;;;;;;13.96;100.00;100562.59;5051498;28;20533;-45
2023/07/23 07:34:57;;;;;;;4.47;4.00;;;;;;;13.98;100.00;100562.53;5051112;28;20683;-44
2023/07/23 07:37:24;;;;;;;4.40;4.10;;;;;;;13.91;100.00;100563.84;5054268;28;20205;-44
2023/07/23 07:39:50;;;;;;;4.55;3.97;;;;;;;13.96;100.00;100551.84;5046765;28;20175;-47
2023/07/23 07:42:16;;;;;;;4.57;4.18;;;;;;;13.99;100.00;100562.44;5063180;28;20249;-49
2023/07/23 07:44:42;;;;;;;4.07;3.78;;;;;;;13.97;100.00;100561.66;5062163;28;20164;-48
2023/07/23 07:47:07;;;;;;;4.50;3.92;;;;;;;13.99;100.00;100562.44;5064502;28;20325;-48
2023/07/23 07:49:33;;;;;;;4.38;3.97;;;;;;;14.06;100.00;100551.31;5042089;28;20179;-47
2023/07/23 07:51:59;;;;;;;4.22;3.92;;;;;;;14.08;100.00;100558.38;5062644;28;20187;-48
2023/07/23 07:54:25;;;;;;;5.30;4.70;;;;;;;14.02;100.00;100548.78;5058952;28;20187;-47
2023/07/23 07:56:51;;;;;;;4.82;4.32;;;;;;;14.02;100.00;100551.50;5062138;28;20258;-49
2023/07/23 07:59:17;;;;;;;5.35;4.70;;;;;;;14.06;100.00;100548.59;5033910;28;20189;-48
2023/07/23 08:01:42;;;;;;;5.97;4.95;;;;;;;14.07;100.00;100543.13;5057178;28;20238;-48
2023/07/23 08:04:10;;;;;;;6.68;4.93;;;;;;;14.10;100.00;100553.75;5054652;28;20179;-47
2023/07/23 08:06:37;;;;;;;5.78;5.28;;;;;;;14.05;100.00;100545.06;5055428;28;20245;-47
2023/07/23 08:09:03;;;;;;;6.50;5.15;;;;;;;13.99;100.00;100543.59;5063105;28;20259;-47
2023/07/23 08:11:29;;;;;;;6.45;5.85;;;;;;;14.12;100.00;100551.81;5061558;28;20199;-47
2023/07/23 08:13:55;;;;;;;6.13;5.60;;;;;;;14.09;100.00;100546.63;5059128;28;20203;-48
2023/07/23 08:16:21;;;;;;;6.53;5.93;;;;;;;14.06;100.00;100538.72;5061833;28;20201;-48
2023/07/23 08:18:47;;;;;;;8.52;6.00;;;;;;;14.17;100.00;100540.81;5028465;28;20221;-49
2023/07/23 08:21:13;;;;;;;6.47;5.72;;;;;;;14.30;100.00;100531.03;5057989;28;20184;-48
2023/07/23 08:23:38;;;;;;;7.00;6.30;;;;;;;14.19;100.00;100531.66;5059416;28;20176;-48
2023/07/23 08:26:06;;;;;;;6.63;5.60;;;;;;;14.17;100.00;100532.72;5061308;28;20191;-48
2023/07/23 08:28:37;;;;;;;6.18;5.68;;;;;;;14.17;100.00;100524.63;5044361;28;20210;-48
2023/07/23 08:31:03;;;;;;;8.50;6.18;;;;;;;14.11;100.00;100522.28;5061117;28;20167;-47
2023/07/23 08:33:32;;;;;;;7.28;6.13;;;;;;;14.16;100.00;100529.13;5058263;28;20197;-49
2023/07/23 08:35:59;;;;;;;7.68;6.32;;;;;;;14.21;100.00;100532.44;5060574;28;20244;-47
2023/07/23 08:38:26;;;;;;;8.57;7.30;;;;;;;14.29;100.00;100536.50;5060896;28;20175;-46
2023/07/23 08:41:02;;;;;;;7.90;6.70;;;;;;;14.29;100.00;100521.22;5061209;28;20238;-48
2023/07/23 08:43:59;;;;;;;8.23;6.68;;;;;;;14.36;100.00;100527.97;5060254;28;20306;-48
2023/07/23 08:46:26;;;;;;;7.60;6.68;;;;;;;14.51;100.00;100528.03;5060137;28;20199;-48
2023/07/23 08:48:54;;;;;;;6.90;6.28;;;;;;;14.55;100.00;100527.78;5058390;28;20183;-48
2023/07/23 08:51:23;;;;;;;8.68;7.15;;;;;;;14.50;100.00;100518.22;5060642;28;20175;-48
2023/07/23 08:53:50;;;;;;;7.18;6.47;;;;;;;14.61;100.00;100529.25;5059760;28;20223;-48
2023/07/23 08:56:17;;;;;;;8.10;7.28;;;;;;;14.60;100.00;100516.72;5059213;28;20199;-48
2023/07/23 08:58:44;;;;;;;8.32;6.93;;;;;;;14.39;100.00;100521.53;5062050;28;20210;-48
2023/07/23 09:01:14;;;;;;;8.73;6.90;;;;;;;14.43;100.00;100513.19;5061033;28;20168;-48
2023/07/23 09:03:40;;;;;;;8.15;6.75;;;;;;;14.51;100.00;100530.72;5060350;28;20179;-48
2023/07/23 09:06:06;;;;;;;10.75;6.97;;;;;;;14.49;100.00;100513.78;5061886;28;20226;-47
2023/07/23 09:08:33;;;;;;;9.48;7.53;;;;;;;14.53;100.00;100518.03;5058489;28;20191;-47
2023/07/23 09:10:58;;;;;;;7.63;6.82;;;;;;;14.54;100.00;100511.66;5059729;28;20187;-50
2023/07/23 09:13:32;;;;;;;8.18;7.38;;;;;;;14.56;100.00;100504.38;5059584;28;20210;-48
2023/07/23 09:15:58;;;;;;;9.50;7.25;;;;;;;14.56;100.00;100512.47;5061233;28;20270;-46
2023/07/23 09:18:23;;;;;;;9.00;6.80;;;;;;;14.46;100.00;100516.66;5044412;28;20256;-48
2023/07/23 09:20:49;;;;;;;7.95;7.15;;;;;;;14.50;100.00;100499.34;5046292;28;20218;-48
2023/07/23 09:23:15;;;;;;;10.02;6.93;;;;;;;14.52;100.00;100502.78;5056036;28;20234;-47
2023/07/23 09:25:43;;;;;;;10.88;7.53;;;;;;;14.61;100.00;100499.59;5060752;28;20218;-50
2023/07/23 09:28:20;;;;;;;8.00;7.20;;;;;;;14.68;100.00;100494.69;5060726;28;20178;-48
2023/07/23 09:30:45;;;;;;;7.80;6.90;;;;;;;14.70;100.00;100504.44;5056865;28;20159;-49
2023/07/23 09:33:12;;;;;;;7.95;7.10;;;;;;;14.86;100.00;100492.69;5057988;28;20323;-47
2023/07/23 09:35:38;;;;;;;10.88;8.52;;;;;;;14.79;100.00;100489.53;5058207;28;20305;-46
2023/07/23 09:38:05;;;;;;;8.52;6.93;;;;;;;14.81;100.00;100491.16;5059592;28;20532;-48
2023/07/23 09:40:38;;;;;;;8.20;7.18;;;;;;;14.93;100.00;100483.25;5060839;28;20167;-50
2023/07/23 09:43:04;;;;;;;8.50;7.60;;;;;;;14.86;100.00;100490.00;5061039;28;20187;-49
2023/07/23 09:45:31;;;;;;;8.65;6.93;;;;;;;14.73;100.00;100498.84;5059228;28;20195;-48
2023/07/23 09:48:01;;;;;;;7.32;6.43;;;;;;;14.76;100.00;100487.88;5059944;28;20171;-49
2023/07/23 09:50:27;;;;;;;7.60;6.88;;;;;;;14.78;100.00;100485.97;5059401;28;20255;-50
2023/07/23 09:52:53;;;;;;;7.00;6.18;;;;;;;14.79;100.00;100486.81;5060424;28;20190;-49
2023/07/23 09:55:20;;;;;;;7.53;6.80;;;;;;;14.88;100.00;100486.25;5059478;28;20195;-47
2023/07/23 09:57:49;;;;;;;8.43;6.97;;;;;;;14.84;100.00;100490.94;5060056;28;20179;-48
2023/07/23 10:00:15;;;;;;;7.95;6.65;;;;;;;14.99;100.00;100480.19;5060695;28;20187;-49
2023/07/23 10:02:43;;;;;;;8.65;7.18;;;;;;;14.91;100.00;100482.50;5060123;28;20201;-48
2023/07/23 10:05:10;;;;;;;8.70;6.95;;;;;;;14.85;100.00;100475.66;5063625;28;20177;-48
2023/07/23 10:07:38;;;;;;;8.32;6.53;;;;;;;14.94;100.00;100479.63;5062541;28;20243;-47
2023/07/23 10:10:05;;;;;;;8.32;6.68;;;;;;;15.09;100.00;100467.88;5060168;28;20260;-49
2023/07/23 10:12:31;;;;;;;8.93;6.55;;;;;;;15.18;100.00;100467.28;5042103;28;20266;-49
2023/07/23 10:14:56;;;;;;;7.55;6.85;;;;;;;15.04;100.00;100468.16;5025542;28;20222;-47
2023/07/23 10:17:22;;;;;;;8.25;7.15;;;;;;;15.15;100.00;100462.09;5060198;28;20259;-48
2023/07/23 10:19:50;;;;;;;9.48;6.80;;;;;;;15.08;100.00;100451.75;5058928;28;20183;-49
2023/07/23 10:22:16;;;;;;;8.25;7.13;;;;;;;15.15;100.00;100451.28;5056300;28;20216;-49
2023/07/23 10:24:42;;;;;;;9.63;7.45;;;;;;;15.15;100.00;100455.81;5057966;28;20178;-48
2023/07/23 10:27:12;;;;;;;7.85;7.05;;;;;;;15.20;100.00;100454.56;5057612;28;20591;-49
2023/07/23 10:29:38;;;;;;;8.02;7.22;;;;;;;15.27;100.00;100464.97;5063175;28;20786;-48
2023/07/23 10:32:23;;;;;;;7.63;6.88;;;;;;;15.18;100.00;100456.47;5061109;28;20171;-47
2023/07/23 10:34:49;;;;;;;7.45;6.70;;;;;;;15.16;100.00;100454.84;5058216;28;20199;-51
2023/07/23 10:37:19;;;;;;;8.10;6.35;;;;;;;15.09;100.00;100453.50;5059794;28;20537;-49
2023/07/23 10:39:55;;;;;;;9.98;6.82;;;;;;;15.16;100.00;100446.75;5058182;28;20189;-49
2023/07/23 10:42:41;;;;;;;9.75;7.10;;;;;;;15.16;100.00;100454.84;5043251;28;20187;-47
2023/07/23 10:45:24;;;;;;;7.60;6.85;;;;;;;15.12;100.00;100447.91;5039883;28;20186;-47
2023/07/23 10:47:57;;;;;;;7.18;6.57;;;;;;;15.17;100.00;100445.78;5060550;28;20189;-50
2023/07/23 10:50:24;;;;;;;8.02;7.22;;;;;;;15.24;100.00;100448.00;5061998;28;20238;-48
2023/07/23 10:52:52;;;;;;;7.35;6.57;;;;;;;15.25;100.00;100433.53;5065307;28;20194;-51
2023/07/23 10:55:58;;;;;;;7.35;6.47;;;;;;;15.38;100.00;100436.31;5064205;28;20661;-48
2023/07/23 10:58:26;;;;;;;9.65;6.75;;;;;;;15.26;100.00;100426.28;5061697;28;20302;-47
2023/07/23 11:00:59;;;;;;;7.78;6.82;;;;;;;15.44;100.00;100433.22;5064302;28;20167;-47
2023/07/23 11:03:26;;;;;;;6.85;6.05;;;;;;;15.39;100.00;100423.66;5062270;28;20182;-49
2023/07/23 11:05:52;;;;;;;9.77;6.72;;;;;;;15.29;100.00;100426.13;5063401;28;20203;-48
2023/07/23 11:08:19;;;;;;;8.35;6.72;;;;;;;15.34;100.00;100426.69;5059203;28;20177;-46